Главная страница
METAR-TAF:

METAR-TAF

Аэропорты :

Бахрейн, Бахрейн

широта: 26-16N, долгота: 050-39E, высота над уровнем моря: 2 м

Текущие метеонаблюдения

Эта сводка был подготовлена 24 минут назад, в 05:30 UTC
Ветер 8 Узел от западный, изменяющийся между западный-юго-западный и западно-северо-западный
Температура 35°C
Влажность 23%
Давление 1001 hPa
Видимость 10 км и более
Нет облачности ниже 1500 м, и нет кучево-дождевой облачности

METAR: OBBI 250530Z 27008KT 240V300 CAVOK 35/11 Q1001 NOSIG

Время: 08:54 (05:54 UTC)

Прогноз

Эта сводка был подготовлена 54 минут назад, в 05:00 UTC
Прогноз действительный с 25-го 06 UTC до 26-го 12 UTC
Ветер 13 Узел от северо-западный
Видимость 10 км и более
Нет облачности ниже 1500 м, и нет кучево-дождевой облачности
изменения
С 25-го 16 UTC до 25-го 18 UTC
Ветер 5 Узел переменных направлений
изменения
С 26-го 04 UTC до 26-го 06 UTC
Ветер 13 Узел от северо-западный

TAF: OBBI 250500Z 2506/2612 31013KT CAVOK BECMG 2516/2518 VRB05KT BECMG 2604/2606 32013KT

Метеонаблюдения и прогнозы для более 4000 аэропортов (сводки METAR и TAF).

Имеющиеся станции представлены на карте желтыми и красными точками.

Чтобы увидеть название станции, наведите на нее мышь.

Затем щелкните, чтобы увидеть метеонаблюдения и метеопрогнозы.

Управление картой: чтобы увеличить масштаб, щелкните зеленые кнопки с черным крестиком; чтобы уменьшить масштаб, щелкните зеленую кнопку с тире; для просмотра соседних карт щелкайте зеленые стрелки.


METAR-TAF: